createdAt,value
2019-03-03T00:01:02.414Z,79.02
2019-03-03T00:03:37.552Z,78.89
2019-03-03T00:06:12.455Z,79.08
2019-03-03T00:08:47.344Z,78.38
2019-03-03T00:11:22.306Z,78.35
2019-03-03T00:13:57.310Z,78.06
2019-03-03T00:16:32.286Z,78.15
2019-03-03T00:19:07.611Z,77.43
2019-03-03T00:21:42.724Z,77.52
2019-03-03T00:24:17.818Z,77.37
2019-03-03T00:26:52.742Z,77.37
2019-03-03T00:29:27.662Z,77.06
2019-03-03T00:32:02.744Z,76.80
2019-03-03T00:34:37.652Z,76.64
2019-03-03T00:37:24.117Z,76.97
2019-03-03T00:40:21.210Z,77.02
2019-03-03T00:43:13.516Z,76.57
2019-03-03T00:45:57.682Z,76.17
2019-03-03T00:48:50.080Z,76.39
2019-03-03T00:51:55.738Z,76.65
2019-03-03T00:54:53.520Z,76.65
2019-03-03T00:57:34.641Z,76.44
2019-03-03T01:00:44.522Z,76.03
2019-03-03T01:03:51.983Z,75.57
2019-03-03T01:06:39.891Z,75.74
2019-03-03T01:09:56.084Z,75.47
2019-03-03T01:12:49.463Z,75.33
2019-03-03T01:15:55.470Z,75.23
2019-03-03T01:18:56.047Z,75.30
2019-03-03T01:21:42.739Z,75.29
2019-03-03T01:24:39.504Z,75.43
2019-03-03T01:27:14.430Z,75.21
2019-03-03T01:29:49.311Z,75.17
2019-03-03T01:32:24.218Z,75.46
2019-03-03T01:34:58.990Z,75.20
2019-03-03T01:37:33.989Z,75.10
2019-03-03T01:40:09.671Z,75.32
2019-03-03T01:42:44.546Z,74.68
2019-03-03T01:45:19.446Z,74.98
2019-03-03T01:47:55.263Z,75.00
2019-03-03T01:50:32.128Z,75.14
2019-03-03T01:53:07.008Z,74.92
2019-03-03T01:55:41.896Z,75.06
2019-03-03T01:58:16.946Z,74.98
2019-03-03T02:00:51.928Z,75.05
2019-03-03T02:03:27.299Z,75.01
2019-03-03T02:06:02.268Z,74.91
2019-03-03T02:08:40.254Z,74.68
2019-03-03T02:11:15.223Z,74.75
2019-03-03T02:13:50.038Z,74.97
2019-03-03T02:16:24.885Z,74.77
2019-03-03T02:18:59.925Z,74.79
2019-03-03T02:21:34.866Z,74.94
2019-03-03T02:24:09.776Z,74.84
2019-03-03T02:26:44.550Z,74.78
2019-03-03T02:29:19.415Z,74.83
2019-03-03T02:31:54.297Z,74.74
2019-03-03T02:34:29.201Z,74.90
2019-03-03T02:37:04.130Z,74.76
2019-03-03T02:39:38.933Z,74.77
2019-03-03T02:42:13.953Z,74.91
2019-03-03T02:44:52.887Z,74.91
2019-03-03T02:47:30.221Z,75.10
2019-03-03T02:50:12.028Z,75.03
2019-03-03T02:52:46.935Z,75.11
2019-03-03T02:55:21.857Z,75.18
2019-03-03T02:57:56.631Z,75.23
2019-03-03T03:00:31.525Z,75.39
2019-03-03T03:03:10.504Z,75.37
2019-03-03T03:05:56.875Z,75.03
2019-03-03T03:08:53.638Z,75.03
2019-03-03T03:11:41.484Z,74.90
2019-03-03T03:14:32.188Z,75.01
2019-03-03T03:17:24.411Z,75.02
2019-03-03T03:20:10.389Z,74.94
2019-03-03T03:22:58.109Z,74.89
2019-03-03T03:25:44.861Z,74.95
2019-03-03T03:28:45.212Z,75.12
2019-03-03T03:31:25.087Z,75.25
2019-03-03T03:34:21.733Z,75.41
2019-03-03T03:37:04.283Z,75.27
2019-03-03T03:39:43.927Z,75.06
2019-03-03T03:42:24.435Z,75.11
2019-03-03T03:45:21.079Z,75.83
2019-03-03T03:48:26.596Z,76.27
2019-03-03T03:51:11.235Z,76.67
2019-03-03T03:54:14.075Z,76.97
2019-03-03T03:56:54.377Z,77.44
2019-03-03T03:59:51.149Z,77.66
2019-03-03T04:02:44.756Z,78.05
2019-03-03T04:05:36.999Z,78.33
2019-03-03T04:08:26.373Z,78.56
2019-03-03T04:11:15.531Z,78.69
2019-03-03T04:14:03.477Z,78.95
2019-03-03T04:17:03.547Z,78.57
2019-03-03T04:19:50.761Z,80.00
2019-03-03T04:22:38.837Z,81.44
2019-03-03T04:25:38.917Z,81.50
2019-03-03T04:28:21.011Z,82.34
2019-03-03T04:31:14.768Z,83.41
2019-03-03T04:33:58.993Z,84.42
2019-03-03T04:36:47.716Z,85.22
2019-03-03T04:39:27.936Z,85.67
2019-03-03T04:42:24.487Z,86.30
2019-03-03T04:45:18.187Z,86.55
2019-03-03T04:48:21.113Z,86.47
2019-03-03T04:51:10.960Z,87.63
2019-03-03T04:54:10.807Z,87.95
2019-03-03T04:57:05.253Z,87.58
2019-03-03T04:59:58.364Z,88.36
2019-03-03T05:02:56.617Z,88.58
2019-03-03T05:09:40.919Z,88.67
2019-03-03T05:12:42.535Z,88.69
2019-03-03T05:15:56.663Z,88.74
2019-03-03T05:19:02.331Z,88.40
2019-03-03T05:21:37.096Z,88.08
2019-03-03T05:24:12.972Z,88.29
2019-03-03T05:26:54.939Z,88.21
2019-03-03T05:29:30.516Z,88.52
2019-03-03T05:32:05.478Z,88.89
2019-03-03T05:34:40.381Z,89.50
2019-03-03T05:37:15.127Z,89.56
2019-03-03T05:39:50.018Z,89.85
2019-03-03T05:42:24.781Z,89.83
2019-03-03T05:44:59.573Z,90.00
2019-03-03T05:47:34.502Z,90.14
2019-03-03T05:50:09.344Z,90.31
2019-03-03T05:52:44.211Z,90.64
2019-03-03T05:55:19.910Z,90.40
2019-03-03T05:57:54.894Z,90.27
2019-03-03T06:00:29.791Z,90.13
2019-03-03T06:03:04.555Z,90.45
2019-03-03T06:05:39.345Z,90.20
2019-03-03T06:08:14.247Z,90.76
2019-03-03T06:10:49.139Z,90.87
2019-03-03T06:13:25.557Z,90.83
2019-03-03T06:16:00.461Z,90.88
2019-03-03T06:18:35.421Z,91.14
2019-03-03T06:21:10.237Z,91.06
2019-03-03T06:23:46.744Z,90.92
2019-03-03T06:26:21.590Z,91.13
2019-03-03T06:28:56.358Z,91.16
2019-03-03T06:31:31.413Z,91.15
2019-03-03T06:34:06.271Z,91.06
2019-03-03T06:36:41.321Z,90.96
2019-03-03T06:39:16.191Z,91.01
2019-03-03T06:41:50.995Z,91.07
2019-03-03T06:44:25.745Z,90.50
2019-03-03T06:47:01.976Z,90.71
2019-03-03T06:50:15.753Z,90.91
2019-03-03T06:53:04.067Z,90.54
2019-03-03T06:55:39.661Z,90.60
2019-03-03T06:58:24.634Z,90.54
2019-03-03T07:00:59.499Z,90.58
2019-03-03T07:03:34.391Z,90.73
2019-03-03T07:06:09.193Z,90.84
2019-03-03T07:08:44.279Z,90.85
2019-03-03T07:11:19.047Z,90.66
2019-03-03T07:13:54.352Z,90.65
2019-03-03T07:16:29.263Z,90.59
2019-03-03T07:19:04.187Z,90.59
2019-03-03T07:21:39.452Z,90.59
2019-03-03T07:24:14.485Z,90.69
2019-03-03T07:26:49.739Z,90.68
2019-03-03T07:29:25.500Z,90.71
2019-03-03T07:32:00.383Z,90.58
2019-03-03T07:34:35.732Z,90.72
2019-03-03T07:37:10.599Z,90.80
2019-03-03T07:39:45.381Z,90.82
2019-03-03T07:42:20.269Z,90.90
2019-03-03T07:44:56.875Z,90.85
2019-03-03T07:48:09.364Z,90.93
2019-03-03T07:50:44.484Z,90.97
2019-03-03T07:53:19.408Z,91.03
2019-03-03T07:55:54.456Z,91.13
2019-03-03T07:58:29.329Z,90.91
2019-03-03T08:01:04.244Z,91.15
2019-03-03T08:06:37.079Z,91.33
2019-03-03T08:09:12.347Z,91.85
2019-03-03T08:11:47.213Z,91.68
2019-03-03T08:14:22.115Z,91.49
2019-03-03T08:16:57.152Z,91.58
2019-03-03T08:19:32.135Z,91.43
2019-03-03T08:22:07.109Z,91.12
2019-03-03T08:24:42.082Z,91.16
2019-03-03T08:27:17.099Z,91.25
2019-03-03T08:29:52.897Z,90.97
2019-03-03T08:32:28.713Z,91.12
2019-03-03T08:35:03.721Z,91.06
2019-03-03T08:37:38.624Z,91.13
2019-03-03T08:40:15.048Z,90.73
2019-03-03T08:43:17.943Z,90.78
2019-03-03T08:46:31.234Z,90.50
2019-03-03T08:49:19.293Z,90.59
2019-03-03T08:52:13.089Z,90.71
2019-03-03T08:55:12.987Z,90.52
2019-03-03T08:58:04.167Z,90.40
2019-03-03T09:00:49.026Z,90.20
2019-03-03T09:03:51.810Z,90.33
2019-03-03T09:06:57.491Z,90.49
2019-03-03T09:09:48.781Z,90.55
2019-03-03T09:12:27.505Z,90.65
2019-03-03T09:15:33.428Z,90.76
2019-03-03T09:18:34.373Z,91.41
2019-03-03T09:21:37.620Z,91.56
2019-03-03T09:24:47.493Z,92.02
2019-03-03T09:27:31.833Z,91.80
2019-03-03T09:30:25.483Z,91.71
2019-03-03T09:33:37.387Z,91.85
2019-03-03T09:36:19.327Z,91.58
2019-03-03T09:39:19.284Z,92.15
2019-03-03T09:42:13.014Z,92.07
2019-03-03T09:45:05.067Z,92.14
2019-03-03T09:47:56.291Z,92.15
2019-03-03T09:51:08.377Z,92.21
2019-03-03T09:54:00.563Z,92.48
2019-03-03T09:56:57.201Z,92.43
2019-03-03T09:59:45.903Z,92.41
2019-03-03T10:02:54.739Z,92.51
2019-03-03T10:05:38.354Z,92.30
2019-03-03T10:08:35.239Z,92.50
2019-03-03T10:11:31.092Z,92.53
2019-03-03T10:14:43.048Z,92.68
2019-03-03T10:17:41.970Z,92.46
2019-03-03T10:20:26.730Z,92.51
2019-03-03T10:23:23.330Z,92.62
2019-03-03T10:26:15.720Z,92.49
2019-03-03T10:29:16.464Z,92.15
2019-03-03T10:32:25.595Z,92.52
2019-03-03T10:35:10.934Z,92.63
2019-03-03T10:38:05.552Z,92.63
2019-03-03T10:40:50.449Z,92.50
2019-03-03T10:43:50.516Z,92.61
2019-03-03T10:46:35.346Z,92.65
2019-03-03T10:49:30.203Z,92.66
2019-03-03T10:52:28.371Z,92.63
2019-03-03T10:55:15.364Z,92.54
2019-03-03T10:58:00.866Z,92.22
2019-03-03T11:00:57.870Z,92.13
2019-03-03T11:03:57.979Z,92.04
2019-03-03T11:06:50.626Z,92.05
2019-03-03T11:09:34.978Z,91.94
2019-03-03T11:12:27.882Z,92.07
2019-03-03T11:15:24.762Z,92.29
2019-03-03T11:18:27.381Z,92.21
2019-03-03T11:21:21.298Z,92.12
2019-03-03T11:24:19.267Z,92.53
2019-03-03T11:27:19.226Z,92.55
2019-03-03T11:30:03.614Z,92.41
2019-03-03T11:32:55.893Z,92.15
2019-03-03T11:35:53.434Z,92.18
2019-03-03T11:38:45.686Z,92.34
2019-03-03T11:41:28.752Z,92.21
2019-03-03T11:44:25.564Z,92.22
2019-03-03T11:47:22.112Z,92.09
2019-03-03T11:50:18.690Z,92.13
2019-03-03T11:53:00.175Z,91.98
2019-03-03T11:55:44.221Z,91.77
2019-03-03T11:58:34.547Z,92.04
2019-03-03T12:01:24.961Z,92.06
2019-03-03T12:04:31.625Z,92.05
2019-03-03T12:07:14.733Z,91.62
2019-03-03T12:10:20.531Z,91.08
2019-03-03T12:13:10.075Z,91.04
2019-03-03T12:15:52.996Z,91.59
2019-03-03T12:18:54.954Z,91.17
2019-03-03T12:21:41.405Z,91.48
2019-03-03T12:24:41.436Z,90.81
2019-03-03T12:27:30.793Z,90.79
2019-03-03T12:30:28.647Z,90.75
2019-03-03T12:33:14.195Z,90.10
2019-03-03T12:36:06.630Z,90.49
2019-03-03T12:39:06.597Z,90.25
2019-03-03T12:42:00.549Z,90.40
2019-03-03T12:45:06.242Z,90.59
2019-03-03T12:48:06.249Z,90.73
2019-03-03T12:51:09.785Z,91.25
2019-03-03T12:54:13.246Z,90.95
2019-03-03T12:56:59.758Z,90.87
2019-03-03T12:59:56.353Z,91.54
2019-03-03T13:02:50.117Z,91.79
2019-03-03T13:05:46.363Z,92.11
2019-03-03T13:08:59.187Z,92.42
2019-03-03T13:11:47.914Z,92.73
2019-03-03T13:14:34.483Z,93.02
2019-03-03T13:17:24.208Z,93.30
2019-03-03T13:20:35.854Z,93.27
2019-03-03T13:23:22.786Z,93.30
2019-03-03T13:26:15.336Z,93.21
2019-03-03T13:29:04.367Z,93.24
2019-03-03T13:31:55.635Z,93.05
2019-03-03T13:34:49.404Z,93.39
2019-03-03T13:37:58.001Z,93.28
2019-03-03T13:40:58.185Z,93.08
2019-03-03T13:43:34.403Z,93.11
2019-03-03T13:46:09.470Z,93.09
2019-03-03T13:48:44.640Z,93.39
2019-03-03T13:51:19.679Z,93.06
2019-03-03T13:53:54.548Z,93.20
2019-03-03T13:56:31.948Z,93.76
2019-03-03T13:59:06.808Z,93.62
2019-03-03T14:01:43.417Z,93.42
2019-03-03T14:04:18.404Z,93.24
2019-03-03T14:06:53.311Z,93.19
2019-03-03T14:09:28.198Z,93.18
2019-03-03T14:12:03.149Z,93.37
2019-03-03T14:14:38.074Z,93.45
2019-03-03T14:17:13.575Z,93.08
2019-03-03T14:19:49.604Z,93.44
2019-03-03T14:22:24.548Z,93.03
2019-03-03T14:24:59.338Z,92.85
2019-03-03T14:27:35.539Z,93.35
2019-03-03T14:30:13.346Z,93.33
2019-03-03T14:32:48.197Z,93.00
2019-03-03T14:35:23.372Z,92.84
2019-03-03T14:38:19.162Z,92.86
2019-03-03T14:40:54.072Z,92.62
2019-03-03T14:43:28.957Z,93.12
2019-03-03T14:46:03.827Z,92.81
2019-03-03T14:48:39.757Z,92.77
2019-03-03T14:51:14.791Z,92.97
2019-03-03T14:53:49.769Z,93.01
2019-03-03T14:57:19.582Z,93.35
2019-03-03T14:59:54.800Z,92.93
2019-03-03T15:02:29.765Z,93.06
2019-03-03T15:05:04.663Z,92.92
2019-03-03T15:07:39.559Z,92.56
2019-03-03T15:10:16.899Z,92.63
2019-03-03T15:16:15.921Z,92.64
2019-03-03T15:18:51.000Z,92.50
2019-03-03T15:21:28.243Z,92.89
2019-03-03T15:24:03.686Z,92.88
2019-03-03T15:26:38.794Z,92.64
2019-03-03T15:29:13.845Z,92.52
2019-03-03T15:31:48.758Z,92.92
2019-03-03T15:34:23.754Z,92.81
2019-03-03T15:36:58.615Z,92.60
2019-03-03T15:39:33.516Z,92.70
2019-03-03T15:42:08.415Z,92.61
2019-03-03T15:44:43.329Z,92.75
2019-03-03T15:47:18.241Z,92.43
2019-03-03T15:49:53.179Z,92.75
2019-03-03T15:52:27.958Z,92.81
2019-03-03T15:55:02.926Z,92.60
2019-03-03T15:57:37.792Z,92.77
2019-03-03T16:00:22.757Z,92.81
2019-03-03T16:02:57.656Z,93.01
2019-03-03T16:05:33.289Z,92.81
2019-03-03T16:08:08.339Z,92.99
2019-03-03T16:10:43.364Z,93.08
2019-03-03T16:13:18.303Z,93.03
2019-03-03T16:15:55.752Z,93.17
2019-03-03T16:18:31.944Z,93.06
2019-03-03T16:21:06.991Z,93.03
2019-03-03T16:23:42.039Z,92.99
2019-03-03T16:26:16.977Z,93.21
2019-03-03T16:28:53.186Z,93.43
2019-03-03T16:31:28.181Z,93.33
2019-03-03T16:34:03.197Z,93.23
2019-03-03T16:36:38.100Z,93.35
2019-03-03T16:39:14.009Z,93.53
2019-03-03T16:41:51.414Z,93.42
2019-03-03T16:44:26.538Z,93.19
2019-03-03T16:47:02.425Z,92.93
2019-03-03T16:49:37.349Z,92.88
2019-03-03T16:52:12.347Z,92.81
2019-03-03T16:54:47.272Z,92.90
2019-03-03T16:57:23.842Z,92.73
2019-03-03T16:59:58.797Z,92.72
2019-03-03T17:02:36.095Z,92.85
2019-03-03T17:05:16.654Z,92.83
2019-03-03T17:07:51.694Z,92.80
2019-03-03T17:10:26.757Z,92.43
2019-03-03T17:13:05.346Z,92.35
2019-03-03T17:15:40.366Z,92.76
2019-03-03T17:18:15.253Z,92.45
2019-03-03T17:20:50.153Z,92.52
2019-03-03T17:23:25.998Z,92.41
2019-03-03T17:26:01.738Z,92.63
2019-03-03T17:28:36.648Z,92.92
2019-03-03T17:31:12.347Z,92.94
2019-03-03T17:33:47.222Z,93.00
2019-03-03T17:36:22.146Z,92.69
2019-03-03T17:38:57.064Z,92.54
2019-03-03T17:41:43.822Z,92.81
2019-03-03T17:44:19.622Z,92.68
2019-03-03T17:46:54.414Z,92.73
2019-03-03T17:49:29.322Z,92.76
2019-03-03T17:52:04.230Z,92.88
2019-03-03T17:54:39.219Z,92.89
2019-03-03T17:57:14.769Z,92.64
2019-03-03T17:59:49.662Z,92.79
2019-03-03T18:02:25.577Z,92.85
2019-03-03T18:05:00.456Z,92.92
2019-03-03T18:07:36.498Z,92.73
2019-03-03T18:10:12.731Z,92.96
2019-03-03T18:12:47.530Z,92.62
2019-03-03T18:15:22.430Z,92.46
2019-03-03T18:17:58.023Z,92.51
2019-03-03T18:20:33.114Z,92.63
2019-03-03T18:23:08.014Z,92.63
2019-03-03T18:25:43.150Z,92.93
2019-03-03T18:28:18.055Z,93.01
2019-03-03T18:31:54.101Z,93.25
2019-03-03T18:34:42.770Z,93.37
2019-03-03T18:37:23.562Z,93.12
2019-03-03T18:39:58.747Z,92.97
2019-03-03T18:42:33.641Z,92.77
2019-03-03T18:45:10.809Z,92.80
2019-03-03T18:47:45.908Z,92.82
2019-03-03T18:50:21.137Z,92.58
2019-03-03T18:52:56.139Z,92.37
2019-03-03T18:55:31.067Z,92.39
2019-03-03T18:58:06.467Z,92.24
2019-03-03T19:00:41.538Z,92.48
2019-03-03T19:03:17.621Z,92.54
2019-03-03T19:05:55.667Z,92.41
2019-03-03T19:08:30.454Z,92.35
2019-03-03T19:11:05.470Z,91.98
2019-03-03T19:13:40.482Z,91.69
2019-03-03T19:16:18.323Z,91.56
2019-03-03T19:18:55.815Z,91.44
2019-03-03T19:21:31.833Z,91.47
2019-03-03T19:24:07.955Z,91.49
2019-03-03T19:26:42.890Z,91.22
2019-03-03T19:29:17.675Z,91.30
2019-03-03T19:31:52.596Z,91.10
2019-03-03T19:34:27.549Z,90.44
2019-03-03T19:37:04.405Z,90.55
2019-03-03T19:39:39.297Z,90.84
2019-03-03T19:42:14.394Z,90.61
2019-03-03T19:45:53.340Z,90.21
2019-03-03T19:48:43.191Z,89.54
2019-03-03T19:51:23.481Z,89.09
2019-03-03T19:53:58.943Z,88.51
2019-03-03T19:56:33.951Z,88.33
2019-03-03T19:59:08.831Z,88.47
2019-03-03T20:01:43.785Z,87.88
2019-03-03T20:04:18.713Z,88.15
2019-03-03T20:06:53.727Z,87.94
2019-03-03T20:09:28.622Z,87.51
2019-03-03T20:12:03.606Z,87.36
2019-03-03T20:14:38.489Z,86.94
2019-03-03T20:17:13.402Z,86.37
2019-03-03T20:19:48.323Z,85.62
2019-03-03T20:22:23.243Z,85.78
2019-03-03T20:24:58.144Z,85.95
2019-03-03T20:27:33.159Z,86.28
2019-03-03T20:30:12.284Z,86.00
2019-03-03T20:32:47.299Z,85.17
2019-03-03T20:35:22.285Z,85.20
2019-03-03T20:37:57.235Z,85.28
2019-03-03T20:40:32.242Z,85.38
2019-03-03T20:43:07.171Z,84.04
2019-03-03T20:45:42.151Z,84.49
2019-03-03T20:48:17.113Z,84.76
2019-03-03T20:50:57.629Z,84.76
2019-03-03T20:53:32.553Z,84.22
2019-03-03T20:56:07.612Z,85.00
2019-03-03T20:58:42.543Z,84.81
2019-03-03T21:01:17.413Z,84.68
2019-03-03T21:03:52.334Z,85.30
2019-03-03T21:06:27.357Z,86.30
2019-03-03T21:09:02.369Z,86.08
2019-03-03T21:11:38.874Z,85.86
2019-03-03T21:14:13.795Z,85.83
2019-03-03T21:16:50.544Z,84.75
2019-03-03T21:19:25.582Z,84.66
2019-03-03T21:24:46.472Z,84.66
2019-03-03T21:27:21.475Z,84.47
2019-03-03T21:29:56.395Z,84.91
2019-03-03T21:32:31.397Z,85.81
2019-03-03T21:35:06.637Z,86.90
2019-03-03T21:37:41.546Z,87.51
2019-03-03T21:40:18.194Z,88.07
2019-03-03T21:42:53.204Z,88.02
2019-03-03T21:45:28.219Z,87.72
2019-03-03T21:48:03.124Z,87.56
2019-03-03T21:50:38.039Z,87.49
2019-03-03T21:53:12.935Z,87.15
2019-03-03T21:55:48.723Z,86.48
2019-03-03T21:58:23.598Z,86.25
2019-03-03T22:00:58.507Z,86.01
2019-03-03T22:03:33.464Z,85.09
2019-03-03T22:06:08.305Z,84.84
2019-03-03T22:08:43.273Z,84.57
2019-03-03T22:11:18.082Z,84.96
2019-03-03T22:13:52.981Z,84.87
2019-03-03T22:16:27.796Z,85.37
2019-03-03T22:19:02.680Z,85.79
2019-03-03T22:21:37.591Z,86.22
2019-03-03T22:24:12.471Z,86.97
2019-03-03T22:26:47.368Z,87.93
2019-03-03T22:29:22.257Z,88.73
2019-03-03T22:31:57.051Z,88.89
2019-03-03T22:34:31.931Z,89.31
2019-03-03T22:37:06.859Z,89.52
2019-03-03T22:39:41.764Z,89.08
2019-03-03T22:42:16.659Z,89.35
2019-03-03T22:44:51.543Z,89.15
2019-03-03T22:47:26.410Z,88.71
2019-03-03T22:50:02.811Z,88.59
2019-03-03T22:52:38.861Z,88.32
2019-03-03T22:55:13.889Z,88.40
2019-03-03T22:57:49.955Z,87.97
2019-03-03T23:01:01.290Z,87.43
2019-03-03T23:04:44.065Z,87.65
2019-03-03T23:08:10.245Z,87.66
2019-03-03T23:11:45.934Z,87.04
2019-03-03T23:14:50.455Z,86.98
2019-03-03T23:18:24.821Z,86.24
2019-03-03T23:21:53.123Z,85.93
2019-03-03T23:25:33.887Z,85.91
2019-03-03T23:28:17.906Z,84.90
2019-03-03T23:30:55.567Z,84.64
2019-03-03T23:33:31.520Z,84.16
2019-03-03T23:36:06.437Z,83.85
2019-03-03T23:38:41.299Z,83.23
2019-03-03T23:41:16.187Z,83.04
2019-03-03T23:43:51.516Z,82.40
2019-03-03T23:46:26.408Z,82.76
2019-03-03T23:49:01.370Z,82.52
2019-03-03T23:51:36.159Z,82.40
2019-03-03T23:54:12.534Z,82.02
2019-03-03T23:56:47.438Z,82.11
2019-03-03T23:59:22.316Z,82.09
